Time;durP1;ratioP1;P1;durP2;ratioP2;P2;SDS_P1;SDS_P2;PMS_P1;PMS_P2;Temp;Humidity;BMP_temperature;BMP_pressure;BME280_temperature;BME280_humidity;BME280_pressure;Samples;Min_cycle;Max_cycle;Signal;HPM_P1;HPM_P2
2021/06/04 00:00:31;;;;;;;7.25;5.92;;;;;;;8.65;63.52;98048.25;1839312;77;25770;-83
2021/06/04 00:03:07;;;;;;;9.63;6.05;;;;;;;8.49;63.66;98043.02;1799532;77;25733;-84
2021/06/04 00:05:38;;;;;;;10.90;6.45;;;;;;;8.43;63.91;98042.42;1799545;77;28372;-82
2021/06/04 00:08:05;;;;;;;8.55;5.50;;;;;;;8.42;64.18;98044.27;1823296;77;25833;-83
2021/06/04 00:10:39;;;;;;;10.88;6.53;;;;;;;8.39;64.32;98038.41;1812659;76;25731;-83
2021/06/04 00:13:27;;;;;;;9.20;5.70;;;;;;;8.35;64.15;98046.00;1821123;77;26603;-85
2021/06/04 00:16:01;;;;;;;9.20;6.40;;;;;;;8.34;64.26;98043.48;1830186;76;25828;-84
2021/06/04 00:18:30;;;;;;;9.80;6.00;;;;;;;8.32;64.29;98042.86;1812750;77;28196;-84
2021/06/04 00:20:58;;;;;;;7.15;5.60;;;;;;;8.30;64.32;98039.80;1843520;77;25716;-83
2021/06/04 00:23:26;;;;;;;9.08;6.00;;;;;;;8.27;64.33;98037.47;1839389;77;25738;-86
2021/06/04 00:25:53;;;;;;;8.33;5.90;;;;;;;8.25;64.34;98032.78;1840665;76;25923;-86
2021/06/04 00:28:19;;;;;;;7.92;5.80;;;;;;;8.21;64.36;98033.34;1833555;77;25746;-89
2021/06/04 00:30:46;;;;;;;13.58;6.67;;;;;;;8.20;64.52;98031.67;1822944;77;28078;-87
2021/06/04 00:33:13;;;;;;;7.17;6.05;;;;;;;8.18;64.60;98031.84;1826948;77;26037;-88
2021/06/04 00:35:41;;;;;;;10.95;6.40;;;;;;;8.13;64.68;98041.45;1825473;77;25269;-88
2021/06/04 00:38:09;;;;;;;7.92;6.17;;;;;;;8.10;64.77;98038.61;1836257;77;26357;-83
2021/06/04 00:40:46;;;;;;;10.25;6.22;;;;;;;8.08;64.92;98037.98;1816468;77;25711;-88
2021/06/04 00:43:14;;;;;;;9.48;6.50;;;;;;;8.07;64.90;98047.06;1843997;77;27542;-86
2021/06/04 00:45:46;;;;;;;8.68;5.95;;;;;;;8.03;64.93;98041.70;1844318;77;25715;-86
2021/06/04 00:48:14;;;;;;;12.73;5.97;;;;;;;7.98;64.99;98045.42;1838145;77;25798;-82
2021/06/04 00:50:55;;;;;;;9.53;5.40;;;;;;;7.97;65.03;98042.41;1816351;77;25642;-91
2021/06/04 00:53:25;;;;;;;7.50;5.37;;;;;;;7.94;65.10;98038.25;1843236;77;25711;-86
2021/06/04 00:55:53;;;;;;;8.75;5.47;;;;;;;7.92;65.08;98037.59;1844316;77;28421;-91
2021/06/04 00:58:25;;;;;;;14.20;6.20;;;;;;;7.90;65.10;98040.95;1839517;77;25680;-90
2021/06/04 01:00:55;;;;;;;10.03;5.75;;;;;;;7.89;65.23;98038.45;1831061;77;25762;-90
2021/06/04 01:03:26;;;;;;;7.03;5.55;;;;;;;7.87;65.25;98040.47;1820568;77;25770;-90
2021/06/04 01:06:00;;;;;;;7.70;5.22;;;;;;;7.80;65.20;98036.33;1816569;77;25741;-89
2021/06/04 01:08:53;;;;;;;9.73;6.28;;;;;;;7.78;65.23;98044.23;1835906;77;27450;-91
2021/06/04 01:11:46;;;;;;;7.42;5.87;;;;;;;7.74;65.38;98038.88;1815971;77;25838;-89
2021/06/04 01:14:18;;;;;;;9.83;5.87;;;;;;;7.73;65.46;98045.30;1827347;77;25825;-90
2021/06/04 01:17:02;;;;;;;7.25;5.55;;;;;;;7.70;65.56;98043.80;1843259;77;25663;-88
2021/06/04 01:20:01;;;;;;;10.43;5.10;;;;;;;7.68;65.55;98048.50;1830235;77;25695;-80
2021/06/04 01:23:12;;;;;;;9.03;5.33;;;;;;;7.61;65.55;98049.41;1844004;77;28185;-90
2021/06/04 01:26:17;;;;;;;8.60;5.85;;;;;;;7.56;65.69;98053.44;1724526;81;25865;-88
2021/06/04 01:28:48;;;;;;;10.25;5.92;;;;;;;7.52;65.76;98052.11;1722844;81;25769;-90
2021/06/04 01:31:26;;;;;;;9.50;5.83;;;;;;;7.49;65.81;98048.93;1730608;81;26077;-89
2021/06/04 01:33:58;;;;;;;7.00;5.22;;;;;;;7.44;65.92;98051.33;1725142;81;25806;-83
2021/06/04 01:36:33;;;;;;;9.68;5.30;;;;;;;7.41;65.88;98052.52;1735238;81;28252;-85
2021/06/04 01:39:05;;;;;;;8.13;5.78;;;;;;;7.38;65.89;98047.48;1724020;81;25917;-82
2021/06/04 01:41:33;;;;;;;10.25;5.92;;;;;;;7.35;65.91;98046.52;1728949;81;33439;-90
2021/06/04 01:44:08;;;;;;;7.85;6.20;;;;;;;7.30;66.13;98046.19;1724850;81;25756;-91
2021/06/04 01:46:40;;;;;;;6.87;5.37;;;;;;;7.26;66.29;98042.17;1730498;82;25892;-91
2021/06/04 01:49:17;;;;;;;8.83;5.67;;;;;;;7.23;66.45;98041.20;1729081;81;33303;-84
2021/06/04 01:51:51;;;;;;;7.75;5.22;;;;;;;7.26;66.45;98048.05;1729794;81;25766;-89
2021/06/04 01:54:35;;;;;;;8.15;5.12;;;;;;;7.25;66.32;98044.52;1745636;81;25801;-90
2021/06/04 01:57:07;;;;;;;6.95;5.20;;;;;;;7.21;66.30;98046.74;1741761;81;25805;-92
2021/06/04 01:59:41;;;;;;;11.18;6.03;;;;;;;7.19;66.31;98046.58;1727005;81;25801;-90
2021/06/04 02:02:10;;;;;;;6.62;5.25;;;;;;;7.14;66.33;98047.59;1742427;80;27434;-92
2021/06/04 02:04:41;;;;;;;10.48;5.30;;;;;;;7.11;66.35;98054.17;1830112;77;25993;-91
2021/06/04 02:07:16;;;;;;;7.17;5.62;;;;;;;7.08;66.37;98050.98;1829045;77;25703;-93
2021/06/04 02:09:45;;;;;;;11.05;5.47;;;;;;;7.04;66.43;98050.99;1841535;77;25728;-91
2021/06/04 02:12:13;;;;;;;11.18;5.45;;;;;;;7.02;66.53;98057.03;1828360;77;25614;-92
2021/06/04 02:14:45;;;;;;;8.28;6.10;;;;;;;6.98;66.61;98050.36;1824787;77;27545;-90
2021/06/04 02:17:35;;;;;;;8.68;6.10;;;;;;;6.96;66.68;98049.69;1833520;77;25794;-92
2021/06/04 02:20:35;;;;;;;7.10;5.45;;;;;;;6.94;66.75;98050.36;1826432;77;25956;-93
2021/06/04 02:23:41;;;;;;;12.10;7.20;;;;;;;6.92;66.88;98052.38;1840911;77;26168;-94
2021/06/04 02:26:19;;;;;;;10.00;6.12;;;;;;;6.86;66.94;98047.20;1844863;77;25730;-91
2021/06/04 02:29:11;;;;;;;8.95;6.75;;;;;;;6.70;66.99;98059.31;1843969;77;28233;-91
2021/06/04 02:32:18;;;;;;;8.80;7.33;;;;;;;6.61;67.37;98050.45;1841620;77;25742;-92
2021/06/04 02:35:06;;;;;;;8.40;6.03;;;;;;;6.54;67.53;98053.47;1846585;77;25723;-93
2021/06/04 02:37:40;;;;;;;11.10;5.90;;;;;;;6.57;67.58;98055.81;1773951;79;25881;-94
2021/06/04 02:40:24;;;;;;;8.98;6.25;;;;;;;6.58;67.67;98049.45;1830672;77;25765;-94
2021/06/04 02:42:56;;;;;;;8.43;6.17;;;;;;;6.60;67.61;98050.13;1843209;77;27396;-93
2021/06/04 02:45:28;;;;;;;10.20;5.30;;;;;;;6.60;67.54;98051.96;1828253;77;25614;-84
2021/06/04 02:48:03;;;;;;;12.70;5.55;;;;;;;6.60;67.59;98055.98;1843275;77;25400;-93
2021/06/04 02:50:41;;;;;;;13.68;6.17;;;;;;;6.61;67.68;98058.50;1845025;77;25430;-94
2021/06/04 02:53:32;;;;;;;6.72;5.70;;;;;;;6.60;67.62;98060.01;1844888;77;25304;-93
2021/06/04 02:56:41;;;;;;;8.40;6.00;;;;;;;6.55;67.69;98059.17;1823484;77;27357;-94
2021/06/04 02:59:25;;;;;;;8.30;6.15;;;;;;;6.47;67.83;98053.83;1836608;77;25278;-94
2021/06/04 03:02:12;;;;;;;9.45;5.97;;;;;;;6.43;68.01;98053.82;1837986;77;25660;-94
2021/06/04 03:04:42;;;;;;;9.33;6.03;;;;;;;6.44;68.03;98051.47;1841929;77;25694;-90
2021/06/04 03:07:30;;;;;;;9.65;5.60;;;;;;;6.44;68.10;98054.16;1841819;77;26306;-82
2021/06/04 03:09:58;;;;;;;10.32;5.92;;;;;;;6.44;68.21;98054.16;1835960;77;27052;-81
2021/06/04 03:12:33;;;;;;;12.53;6.58;;;;;;;6.42;68.31;98047.62;1836071;78;25791;-90
2021/06/04 03:15:00;;;;;;;12.03;6.22;;;;;;;6.44;68.25;98053.66;1835195;77;25802;-91
2021/06/04 03:17:31;;;;;;;11.88;6.03;;;;;;;6.46;68.33;98050.81;1826495;77;25750;-93
2021/06/04 03:19:58;;;;;;;11.08;6.30;;;;;;;6.48;68.42;98050.14;1838130;77;25652;-91
2021/06/04 03:22:33;;;;;;;9.68;5.60;;;;;;;6.49;68.46;98055.84;1825269;77;27924;-82
2021/06/04 03:25:20;;;;;;;8.00;5.62;;;;;;;6.50;68.40;98054.84;1835300;77;25778;-82
2021/06/04 03:27:48;;;;;;;10.23;5.95;;;;;;;6.50;68.39;98054.84;1836304;77;25755;-91
2021/06/04 03:30:19;;;;;;;9.90;5.78;;;;;;;6.50;68.45;98056.17;1821249;77;25688;-93
2021/06/04 03:32:46;;;;;;;12.50;6.08;;;;;;;6.51;68.48;98063.22;1841745;77;25761;-86
2021/06/04 03:35:14;;;;;;;11.40;5.83;;;;;;;6.53;68.57;98063.02;1841925;77;28334;-92
2021/06/04 03:37:42;;;;;;;10.28;6.12;;;;;;;6.53;68.61;98062.52;1841638;77;25719;-91
2021/06/04 03:40:13;;;;;;;9.63;6.67;;;;;;;6.55;68.65;98067.22;1825477;77;25733;-88
2021/06/04 03:42:42;;;;;;;9.40;7.35;;;;;;;6.57;68.72;98063.02;1832500;77;26088;-92
2021/06/04 03:45:14;;;;;;;10.93;7.20;;;;;;;6.58;68.76;98061.52;1826574;77;25752;-87
2021/06/04 03:47:41;;;;;;;11.97;7.58;;;;;;;6.60;68.82;98058.17;1841954;77;27443;-88
2021/06/04 03:50:10;;;;;;;11.48;7.60;;;;;;;6.63;68.93;98056.49;1841787;77;27017;-92
2021/06/04 03:52:37;;;;;;;12.25;6.83;;;;;;;6.68;68.94;98067.53;1839617;77;25853;-92
2021/06/04 03:55:08;;;;;;;11.83;7.12;;;;;;;6.71;69.08;98062.34;1822767;77;25516;-90
2021/06/04 03:57:36;;;;;;;11.65;7.17;;;;;;;6.72;69.10;98059.48;1803672;77;25855;-93
2021/06/04 04:00:11;;;;;;;14.95;7.30;;;;;;;6.76;69.10;98066.16;1799326;79;27573;-91
2021/06/04 04:02:38;;;;;;;12.40;7.33;;;;;;;6.78;69.14;98056.09;1797661;78;25683;-89
2021/06/04 04:05:07;;;;;;;17.07;7.25;;;;;;;6.82;69.18;98064.66;1798679;79;25224;-92
2021/06/04 04:07:34;;;;;;;12.68;7.60;;;;;;;6.85;69.31;98062.47;1798339;79;25782;-90
2021/06/04 04:10:00;;;;;;;9.70;7.15;;;;;;;6.91;69.37;98065.46;1798749;78;25933;-88
2021/06/04 04:12:27;;;;;;;11.20;6.75;;;;;;;6.95;69.39;98064.12;1798921;79;27511;-86
2021/06/04 04:14:54;;;;;;;12.60;7.87;;;;;;;7.00;69.53;98059.92;1798900;79;25839;-90
2021/06/04 04:17:22;;;;;;;12.58;7.12;;;;;;;7.05;69.57;98058.04;1798923;79;25698;-89
2021/06/04 04:19:48;;;;;;;13.10;7.53;;;;;;;7.12;69.68;98064.41;1781825;79;26294;-81
2021/06/04 04:22:15;;;;;;;14.65;7.72;;;;;;;7.16;69.70;98054.97;1798826;79;25723;-79
2021/06/04 04:24:44;;;;;;;10.93;7.10;;;;;;;7.24;69.71;98057.64;1798801;79;28431;-82
2021/06/04 04:27:11;;;;;;;9.95;6.85;;;;;;;7.30;69.76;98054.75;1776471;78;25897;-79
2021/06/04 04:29:38;;;;;;;12.20;7.80;;;;;;;7.37;69.83;98057.05;1798935;79;25663;-79
2021/06/04 04:32:12;;;;;;;10.68;7.08;;;;;;;7.45;69.79;98054.34;1798178;78;25726;-81
2021/06/04 04:34:37;;;;;;;12.75;7.97;;;;;;;7.52;69.85;98052.62;1798668;78;25744;-86
2021/06/04 04:37:04;;;;;;;12.43;7.42;;;;;;;7.58;69.87;98049.24;1798960;79;27411;-82
2021/06/04 04:39:35;;;;;;;9.53;7.45;;;;;;;7.64;69.93;98050.37;1798318;79;25686;-84
2021/06/04 04:42:04;;;;;;;13.70;7.20;;;;;;;7.72;69.87;98044.97;1798939;78;25725;-79
2021/06/04 04:44:34;;;;;;;11.93;7.67;;;;;;;7.79;69.97;98044.56;1796780;79;25696;-80
2021/06/04 04:47:06;;;;;;;10.15;6.87;;;;;;;7.88;69.87;98047.52;1785460;79;25725;-82
2021/06/04 04:49:33;;;;;;;10.67;6.97;;;;;;;7.96;69.75;98046.14;1799113;79;28116;-86
2021/06/04 04:52:00;;;;;;;13.78;6.90;;;;;;;8.07;69.65;98042.19;1804069;79;25639;-80
2021/06/04 04:54:27;;;;;;;12.37;7.92;;;;;;;8.15;69.62;98037.58;1793901;79;25925;-81
2021/06/04 04:56:53;;;;;;;11.12;6.87;;;;;;;8.24;69.73;98035.64;1808884;78;25831;-80
2021/06/04 04:59:20;;;;;;;11.57;7.20;;;;;;;8.31;69.76;98031.23;1827962;77;25807;-82
2021/06/04 05:01:47;;;;;;;10.32;7.85;;;;;;;8.39;69.90;98036.56;1827782;77;28057;-81
2021/06/04 05:04:14;;;;;;;10.03;7.90;;;;;;;8.48;70.11;98037.31;1827697;78;25727;-81
2021/06/04 05:06:40;;;;;;;11.35;6.67;;;;;;;8.57;70.07;98042.97;1827299;77;25806;-80
2021/06/04 05:09:08;;;;;;;11.57;7.87;;;;;;;8.65;70.14;98042.87;1827961;77;25731;-80
2021/06/04 05:11:35;;;;;;;15.88;7.40;;;;;;;8.74;70.21;98042.27;1827799;77;25814;-84
2021/06/04 05:14:02;;;;;;;11.40;7.62;;;;;;;8.83;70.21;98043.34;1827963;77;27560;-81
2021/06/04 05:16:28;;;;;;;9.05;6.62;;;;;;;8.93;70.27;98042.58;1827792;77;25249;-84
2021/06/04 05:18:55;;;;;;;10.80;6.45;;;;;;;9.03;70.09;98043.13;1827692;77;25742;-84
2021/06/04 05:21:22;;;;;;;9.25;6.20;;;;;;;9.14;70.01;98047.72;1827669;77;25540;-83
2021/06/04 05:23:49;;;;;;;9.45;6.53;;;;;;;9.23;69.92;98041.20;1827809;77;25898;-81
2021/06/04 05:26:16;;;;;;;10.60;6.53;;;;;;;9.34;69.83;98036.68;1809871;77;27507;-87
2021/06/04 05:28:42;;;;;;;8.93;6.50;;;;;;;9.45;69.79;98034.84;1827630;77;25803;-87
2021/06/04 05:31:12;;;;;;;10.38;6.95;;;;;;;9.56;69.75;98035.70;1827737;77;25278;-81
2021/06/04 05:33:43;;;;;;;9.90;6.78;;;;;;;9.68;69.67;98032.00;1827717;77;25794;-82
2021/06/04 05:36:16;;;;;;;9.58;5.50;;;;;;;9.82;69.67;98041.07;1819419;77;25257;-84
2021/06/04 05:38:46;;;;;;;9.50;5.75;;;;;;;9.93;69.39;98035.17;1827739;77;27435;-83
2021/06/04 05:41:13;;;;;;;8.68;6.10;;;;;;;10.06;69.12;98038.84;1827729;77;25747;-81
2021/06/04 05:43:43;;;;;;;7.78;5.45;;;;;;;10.20;69.23;98039.00;1827036;77;25708;-84
2021/06/04 05:46:13;;;;;;;6.83;5.67;;;;;;;10.31;69.19;98032.56;1823152;77;25804;-82
2021/06/04 05:48:40;;;;;;;8.90;5.90;;;;;;;10.46;69.26;98037.38;1827861;77;25653;-80
2021/06/04 05:51:12;;;;;;;9.73;6.05;;;;;;;10.58;69.02;98040.38;1827589;77;27337;-82
2021/06/04 05:53:40;;;;;;;15.03;6.10;;;;;;;10.72;68.69;98034.56;1827599;77;25677;-83
2021/06/04 05:56:11;;;;;;;9.45;5.87;;;;;;;10.86;68.26;98033.63;1827736;77;25763;-84
2021/06/04 05:58:38;;;;;;;8.10;5.87;;;;;;;11.00;68.19;98031.30;1842720;77;25667;-82
2021/06/04 06:01:10;;;;;;;9.23;5.95;;;;;;;11.14;68.29;98030.86;1844474;77;25714;-84
2021/06/04 06:03:37;;;;;;;13.05;6.08;;;;;;;11.27;68.26;98035.50;1842588;77;27357;-85
2021/06/04 06:06:06;;;;;;;11.63;5.85;;;;;;;11.40;68.08;98038.27;1838863;77;25809;-80
2021/06/04 06:08:33;;;;;;;11.40;6.42;;;;;;;11.52;67.87;98035.30;1838958;77;25764;-93
2021/06/04 06:11:00;;;;;;;11.25;6.40;;;;;;;11.64;67.67;98032.33;1837938;77;25897;-81
2021/06/04 06:13:28;;;;;;;13.32;6.87;;;;;;;11.79;67.37;98028.98;1824681;77;25677;-87
2021/06/04 06:15:56;;;;;;;7.92;6.25;;;;;;;11.94;67.38;98035.59;1831131;77;27376;-90
2021/06/04 06:18:24;;;;;;;11.95;6.47;;;;;;;12.11;67.34;98023.84;1844532;77;25739;-87
2021/06/04 06:20:52;;;;;;;8.45;6.30;;;;;;;12.24;67.12;98023.86;1830889;77;25803;-90
2021/06/04 06:23:25;;;;;;;12.55;6.42;;;;;;;12.37;66.90;98021.68;1839194;77;26291;-87
2021/06/04 06:25:56;;;;;;;13.70;6.90;;;;;;;12.54;67.11;98022.42;1844802;77;25253;-82
2021/06/04 06:28:28;;;;;;;11.65;6.78;;;;;;;12.69;67.15;98017.28;1844694;77;27551;-89
2021/06/04 06:30:55;;;;;;;10.23;6.58;;;;;;;12.83;66.87;98017.06;1837972;77;25719;-87
2021/06/04 06:33:23;;;;;;;10.45;6.53;;;;;;;12.97;66.68;98017.88;1831791;77;25694;-88
2021/06/04 06:35:55;;;;;;;10.50;6.42;;;;;;;13.13;66.66;98017.44;1844288;77;25763;-88
2021/06/04 06:38:24;;;;;;;15.63;6.58;;;;;;;13.25;66.50;98007.63;1844722;77;25761;-86
2021/06/04 06:40:53;;;;;;;10.32;6.47;;;;;;;13.41;66.55;98013.60;1840057;77;28146;-89
2021/06/04 06:43:22;;;;;;;9.28;6.62;;;;;;;13.60;66.54;98012.70;1838540;77;25787;-88
2021/06/04 06:45:50;;;;;;;12.47;7.15;;;;;;;13.77;65.97;98011.14;1838618;77;25765;-83
2021/06/04 06:48:17;;;;;;;14.83;6.55;;;;;;;13.89;65.46;98006.69;1838859;78;25987;-83
2021/06/04 06:50:45;;;;;;;12.03;6.72;;;;;;;14.03;65.44;98011.52;1842377;77;25747;-83
2021/06/04 06:53:14;;;;;;;9.13;6.72;;;;;;;14.23;64.95;98008.69;1844066;77;27266;-90
2021/06/04 06:55:43;;;;;;;8.88;5.65;;;;;;;14.39;65.00;98004.05;1844438;77;25991;-87
2021/06/04 06:58:11;;;;;;;9.33;5.65;;;;;;;14.52;64.87;98008.05;1844305;77;25727;-83
2021/06/04 07:00:43;;;;;;;8.50;5.53;;;;;;;14.66;63.82;98010.13;1844513;77;25714;-85
2021/06/04 07:03:13;;;;;;;8.75;5.67;;;;;;;14.85;63.17;98000.98;1844614;77;26583;-83
2021/06/04 07:05:39;;;;;;;10.93;5.83;;;;;;;15.04;62.40;98002.66;1844554;77;28231;-90
2021/06/04 07:08:08;;;;;;;8.25;5.90;;;;;;;15.14;62.45;98004.84;1824647;77;26422;-83
2021/06/04 07:10:36;;;;;;;8.63;5.40;;;;;;;15.30;62.50;98002.90;1844606;77;25804;-87
2021/06/04 07:13:08;;;;;;;7.95;5.17;;;;;;;15.41;61.52;97995.34;1844522;77;25778;-88
2021/06/04 07:15:34;;;;;;;11.18;6.05;;;;;;;15.57;61.04;98002.09;1844823;77;25687;-85
2021/06/04 07:18:02;;;;;;;11.22;6.20;;;;;;;15.67;60.78;98002.38;1841579;77;27031;-88
2021/06/04 07:20:32;;;;;;;11.45;6.25;;;;;;;15.79;60.13;98000.53;1816389;77;25762;-88
2021/06/04 07:22:59;;;;;;;10.50;6.12;;;;;;;15.90;59.89;97992.11;1835310;77;25858;-87
2021/06/04 07:25:31;;;;;;;10.30;6.30;;;;;;;16.07;59.83;97987.66;1817120;77;25732;-86
2021/06/04 07:27:59;;;;;;;10.23;6.33;;;;;;;16.23;59.42;97997.59;1827814;77;25722;-87
2021/06/04 07:30:30;;;;;;;10.13;6.10;;;;;;;16.35;58.82;97993.84;1843597;77;27362;-87
2021/06/04 07:33:01;;;;;;;12.93;6.62;;;;;;;16.49;58.67;97992.56;1831512;77;25732;-87
2021/06/04 07:35:31;;;;;;;9.15;6.42;;;;;;;16.64;58.16;97996.23;1842152;77;25680;-88
2021/06/04 07:37:57;;;;;;;8.13;5.90;;;;;;;16.77;57.67;97992.45;1844454;77;25719;-87
2021/06/04 07:40:29;;;;;;;10.78;5.25;;;;;;;16.89;57.16;97995.48;1841421;77;25277;-87
2021/06/04 07:43:00;;;;;;;9.03;5.40;;;;;;;17.06;56.75;97987.92;1843420;77;28204;-87
2021/06/04 07:45:31;;;;;;;6.40;5.15;;;;;;;17.20;56.20;97987.97;1844126;77;26310;-88
2021/06/04 07:48:00;;;;;;;7.33;4.63;;;;;;;17.38;56.27;97987.83;1844771;77;25687;-90
2021/06/04 07:50:27;;;;;;;7.90;4.53;;;;;;;17.57;55.55;97990.67;1844490;77;26318;-85
2021/06/04 07:52:54;;;;;;;5.30;4.05;;;;;;;17.83;55.17;97984.39;1844522;77;25953;-90
2021/06/04 07:55:21;;;;;;;6.85;4.05;;;;;;;18.18;54.91;97986.42;1830802;77;27568;-87
2021/06/04 07:57:48;;;;;;;4.33;3.50;;;;;;;18.60;54.38;97983.33;1835145;77;25799;-86
2021/06/04 08:00:21;;;;;;;3.95;3.55;;;;;;;19.13;53.61;97986.06;1823434;77;25656;-86
2021/06/04 08:02:48;;;;;;;6.37;3.47;;;;;;;19.68;52.37;97984.64;1840517;77;26636;-89
2021/06/04 08:05:16;;;;;;;6.10;2.50;;;;;;;20.27;51.37;97977.34;1841528;77;25742;-88
2021/06/04 08:07:43;;;;;;;8.18;3.08;;;;;;;20.85;50.36;97977.03;1841550;77;27370;-83
2021/06/04 08:10:12;;;;;;;4.15;3.25;;;;;;;21.43;49.91;97973.83;1819878;77;25245;-85
2021/06/04 08:12:39;;;;;;;4.05;3.27;;;;;;;21.93;48.51;97974.04;1841578;77;25722;-86
2021/06/04 08:15:11;;;;;;;3.70;2.47;;;;;;;22.25;47.33;97957.91;1819988;77;25675;-86
2021/06/04 08:17:37;;;;;;;;;;;;;;;22.74;46.37;97965.63;1844203;77;25652;-84
2021/06/04 08:20:09;;;;;;;5.58;3.30;;;;;;;23.19;43.86;97968.34;1836510;77;27349;-88
2021/06/04 08:22:39;;;;;;;4.97;3.17;;;;;;;23.57;44.52;97971.56;1819963;77;25896;-87
2021/06/04 08:25:08;;;;;;;7.50;3.40;;;;;;;23.95;43.79;97966.71;1836714;77;25696;-88
2021/06/04 08:27:35;;;;;;;5.05;2.92;;;;;;;24.36;43.37;97959.61;1835430;77;26438;-88
2021/06/04 08:30:04;;;;;;;4.35;2.98;;;;;;;24.70;42.58;97961.81;1841643;77;25795;-86
2021/06/04 08:32:33;;;;;;;4.42;3.20;;;;;;;25.03;41.96;97956.56;1841399;77;27601;-87
2021/06/04 08:35:00;;;;;;;4.15;2.95;;;;;;;25.38;41.05;97961.72;1841427;77;25790;-86
2021/06/04 08:37:27;;;;;;;4.10;2.70;;;;;;;25.74;40.42;97954.41;1841294;77;25675;-85
2021/06/04 08:39:53;;;;;;;6.80;2.77;;;;;;;26.07;39.79;97953.42;1828821;77;25904;-85
2021/06/04 08:43:01;;;;;;;3.77;2.87;;;;;;;26.20;39.10;97947.12;1841432;77;25825;-84
2021/06/04 08:45:39;;;;;;;5.85;2.77;;;;;;;26.36;38.92;97947.75;1759998;81;27451;-83
2021/06/04 08:48:34;;;;;;;5.42;2.75;;;;;;;26.86;38.50;97939.73;1835886;77;25703;-83
2021/06/04 08:51:18;;;;;;;4.08;2.75;;;;;;;27.21;38.75;97947.99;1831519;77;25872;-84
2021/06/04 08:54:29;;;;;;;3.55;2.62;;;;;;;27.55;37.88;97941.52;1819070;77;25763;-83
2021/06/04 08:57:07;;;;;;;4.08;2.60;;;;;;;27.64;37.07;97941.64;1836559;77;25810;-84
2021/06/04 08:59:35;;;;;;;4.40;3.00;;;;;;;27.25;36.79;97941.54;1841332;77;27443;-83
2021/06/04 09:02:13;;;;;;;4.17;2.87;;;;;;;27.22;36.47;97934.39;1841446;77;25765;-83
2021/06/04 09:04:53;;;;;;;3.77;2.75;;;;;;;27.17;35.89;97939.45;1841498;77;25674;-83
2021/06/04 09:07:38;;;;;;;4.15;2.77;;;;;;;27.47;35.61;97935.28;1836430;77;26618;-84
2021/06/04 09:10:34;;;;;;;6.35;2.80;;;;;;;27.84;35.41;97926.51;1841717;77;25652;-84
2021/06/04 09:13:17;;;;;;;4.28;2.42;;;;;;;28.33;34.70;97929.86;1841506;77;27434;-84
2021/06/04 09:15:46;;;;;;;3.77;2.80;;;;;;;28.66;34.31;97923.49;1841470;77;26298;-83
2021/06/04 09:18:19;;;;;;;3.20;2.87;;;;;;;28.89;33.78;97922.36;1841505;77;25777;-84
2021/06/04 09:21:03;;;;;;;3.10;2.60;;;;;;;29.16;33.63;97920.55;1841667;77;26309;-83
2021/06/04 09:23:37;;;;;;;7.00;2.77;;;;;;;29.34;33.40;97919.51;1841589;77;25686;-82
2021/06/04 09:26:07;;;;;;;4.62;2.50;;;;;;;29.49;32.97;97918.27;1816214;77;27380;-81
2021/06/04 09:28:48;;;;;;;7.50;6.05;;;;;;;29.68;32.39;97919.66;1839280;77;25749;-83
2021/06/04 09:31:44;;;;;;;3.37;2.77;;;;;;;29.84;31.93;97915.00;1841840;77;26247;-82
2021/06/04 09:34:26;;;;;;;4.42;3.10;;;;;;;30.01;31.18;97915.90;1828045;77;25699;-83
2021/06/04 09:37:23;;;;;;;5.50;2.47;;;;;;;30.12;30.57;97906.66;1841542;77;25762;-83
2021/06/04 09:39:54;;;;;;;3.98;2.55;;;;;;;29.90;30.12;97909.55;1829208;77;27454;-82
2021/06/04 09:42:26;;;;;;;3.33;2.60;;;;;;;29.96;30.24;97909.66;1833956;77;25716;-84
2021/06/04 09:45:13;;;;;;;5.65;3.17;;;;;;;29.99;29.39;97913.19;1829551;77;25683;-82
2021/06/04 09:47:47;;;;;;;5.65;3.05;;;;;;;29.96;29.55;97907.69;1796387;79;25789;-86
2021/06/04 09:50:25;;;;;;;3.00;2.70;;;;;;;29.84;29.34;97899.70;1802221;79;25319;-82
2021/06/04 09:53:09;;;;;;;5.58;2.58;;;;;;;29.88;29.30;97900.13;1801429;79;28097;-82
2021/06/04 09:55:48;;;;;;;2.98;2.45;;;;;;;29.90;28.62;97899.23;1802181;79;25761;-82
2021/06/04 09:58:26;;;;;;;3.12;2.35;;;;;;;29.69;28.18;97899.04;1796138;79;26461;-82
2021/06/04 10:01:05;;;;;;;4.30;2.75;;;;;;;29.59;27.65;97899.31;1774088;80;25854;-82
2021/06/04 10:03:46;;;;;;;2.52;2.25;;;;;;;29.56;27.62;97895.81;1774226;80;26073;-82
2021/06/04 10:06:27;;;;;;;4.78;2.02;;;;;;;29.60;27.54;97897.35;1774141;80;27410;-83
2021/06/04 10:09:14;;;;;;;2.47;2.10;;;;;;;29.62;27.04;97894.50;1774565;79;25829;-83
2021/06/04 10:11:46;;;;;;;4.80;2.45;;;;;;;29.56;27.75;97888.86;1767346;80;25930;-83
2021/06/04 10:14:32;;;;;;;2.92;2.47;;;;;;;29.63;26.90;97891.15;1769637;80;25904;-82
2021/06/04 10:17:38;;;;;;;3.72;2.45;;;;;;;29.51;27.27;97893.16;1766791;80;25812;-83
2021/06/04 10:19:48;;;;;;;2.98;2.67;;;;;;;29.52;26.67;97893.41;1758925;80;27388;-83
2021/06/04 10:22:38;;;;;;;2.42;2.10;;;;;;;29.53;26.82;97890.88;1766938;81;25735;-84
2021/06/04 10:25:12;;;;;;;4.25;2.20;;;;;;;29.52;26.50;97887.03;1773123;80;25756;-84
2021/06/04 10:27:44;;;;;;;3.80;2.83;;;;;;;29.60;26.58;97885.66;1775702;80;26472;-83
2021/06/04 10:30:25;;;;;;;4.10;2.80;;;;;;;29.66;26.69;97881.59;1771967;80;25718;-82
2021/06/04 10:33:06;;;;;;;4.85;2.85;;;;;;;29.73;26.45;97886.67;1769899;80;28332;-83
2021/06/04 10:35:47;;;;;;;7.45;3.08;;;;;;;29.75;26.30;97881.61;1775143;80;25790;-85
2021/06/04 10:38:46;;;;;;;2.98;2.27;;;;;;;29.79;25.92;97874.83;1774218;80;25824;-83
2021/06/04 10:41:18;;;;;;;5.40;2.67;;;;;;;29.89;25.71;97880.08;1771708;80;25744;-84
2021/06/04 10:44:07;;;;;;;5.72;2.87;;;;;;;29.77;26.51;97872.94;1771898;80;25778;-83
2021/06/04 10:46:45;;;;;;;3.35;2.62;;;;;;;29.58;27.17;97873.23;1773100;80;27411;-82
2021/06/04 10:49:37;;;;;;;4.25;2.45;;;;;;;29.32;27.24;97868.95;1794271;79;25903;-84
2021/06/04 10:52:27;;;;;;;5.42;2.70;;;;;;;28.98;27.55;97870.42;1766475;79;25763;-83
2021/06/04 10:55:11;;;;;;;3.05;2.75;;;;;;;29.00;28.12;97865.38;1801491;79;25745;-84
2021/06/04 10:58:00;;;;;;;6.03;2.80;;;;;;;29.17;27.59;97863.25;1794630;79;26573;-84
2021/06/04 11:00:59;;;;;;;8.98;2.52;;;;;;;29.19;27.69;97861.55;1829771;78;27552;-82
2021/06/04 11:03:52;;;;;;;5.60;3.67;;;;;;;29.41;28.15;97861.48;1833107;77;25937;-83
2021/06/04 11:06:24;;;;;;;2.65;2.45;;;;;;;29.59;28.10;97856.20;1819935;77;25721;-83
2021/06/04 11:09:23;;;;;;;6.37;2.87;;;;;;;29.74;28.76;97857.13;1841730;77;25680;-82
2021/06/04 11:11:57;;;;;;;4.53;2.65;;;;;;;29.85;28.08;97849.86;1841687;77;25717;-83
2021/06/04 11:14:52;;;;;;;4.85;2.85;;;;;;;29.91;28.19;97847.18;1841079;77;27434;-83
2021/06/04 11:17:39;;;;;;;7.35;2.75;;;;;;;30.02;28.09;97845.74;1841190;77;26257;-83
2021/06/04 11:20:43;;;;;;;3.62;2.98;;;;;;;30.04;27.44;97846.23;1820033;77;25717;-82
2021/06/04 11:23:30;;;;;;;7.53;2.85;;;;;;;29.92;26.82;97840.47;1818968;77;26515;-83
2021/06/04 11:26:01;;;;;;;4.25;2.80;;;;;;;29.74;26.36;97839.62;1822618;77;25711;-82
2021/06/04 11:28:42;;;;;;;6.12;2.65;;;;;;;29.81;26.51;97840.55;1836492;77;27446;-83
2021/06/04 11:31:34;;;;;;;3.47;2.27;;;;;;;29.77;26.46;97840.38;1832778;77;25775;-83
2021/06/04 11:34:06;;;;;;;3.80;2.92;;;;;;;29.62;26.42;97840.26;1825800;77;26293;-82
2021/06/04 11:36:38;;;;;;;4.80;3.05;;;;;;;29.48;26.07;97842.35;1841717;77;26168;-82
2021/06/04 11:39:08;;;;;;;;;;;;;;;29.40;26.60;97841.77;1837002;77;25800;-83
2021/06/04 11:41:49;;;;;;;3.67;2.83;;;;;;;29.38;26.41;97839.88;1826746;77;27766;-83
2021/06/04 11:44:42;;;;;;;5.27;2.50;;;;;;;29.30;26.33;97835.09;1834088;77;25760;-83
2021/06/04 11:47:22;;;;;;;4.35;2.55;;;;;;;29.28;25.86;97838.19;1822772;77;25794;-83
2021/06/04 11:50:06;;;;;;;5.47;2.25;;;;;;;29.27;26.04;97835.73;1820623;77;25794;-83
2021/06/04 11:52:42;;;;;;;3.05;2.75;;;;;;;29.31;26.01;97829.78;1841398;77;25651;-82
2021/06/04 11:55:26;;;;;;;3.20;2.20;;;;;;;29.27;26.17;97827.38;1829144;77;27521;-82
2021/06/04 11:58:00;;;;;;;3.60;2.87;;;;;;;29.35;25.92;97825.19;1836113;77;25816;-82
2021/06/04 12:00:44;;;;;;;4.90;3.20;;;;;;;29.02;25.73;97818.63;1803474;77;26140;-82
2021/06/04 12:03:18;;;;;;;2.77;2.52;;;;;;;28.89;25.72;97822.91;1797064;77;26558;-82
2021/06/04 12:05:48;;;;;;;5.47;2.45;;;;;;;28.87;25.89;97819.05;1797175;79;25741;-82
2021/06/04 12:08:32;;;;;;;2.67;2.25;;;;;;;28.99;26.35;97813.71;1774853;79;27366;-83